NJE358P EGGW-LSZB
Flight info
| Callsign | NJE358P |
|---|---|
| Flight time | 1h 2m |
| Altitude | 35000 |
| Route | MATCH Q295 BRAIN P44 DAGGA M85 ITVIP L10 DVR UL9 KONAN UL607 FERDI DCT REMBA M624 RITAX DCT SUTAL DCT GTQ DCT POGOL DCT LASAT A242 HR T626 LUTIX T627 BIRKI |
| Aircraft | C56X/M-SDFGLM3ORVWY/SB1 |
Departure
| Time | 2026-05-06 15:16 |
|---|---|
| Airport | London Luton Airport (EGGW) |
Arrival
| Time | 2026-05-06 16:18 |
|---|---|
| Airport | Bern Airport (LSZB) |
| Time | Latitude | Longitude | Altitude | Speed | Heading |
|---|---|---|---|---|---|
| 2026-05-06 14:58 | 51.88202 | -0.37779 | 520 ft | 0 kts | 316° |
| 2026-05-06 15:06 | 51.88190 | -0.37761 | 520 ft | 4 kts | 316° |
| 2026-05-06 15:06 | 51.88173 | -0.37734 | 520 ft | 4 kts | 330° |
| 2026-05-06 15:07 | 51.88157 | -0.37736 | 520 ft | 4 kts | 43° |
| 2026-05-06 15:07 | 51.88140 | -0.37767 | 520 ft | 3 kts | 53° |
| 2026-05-06 15:07 | 51.88134 | -0.37778 | 520 ft | 1 kts | 47° |
| 2026-05-06 15:09 | 51.88149 | -0.37749 | 520 ft | 9 kts | 52° |
| 2026-05-06 15:09 | 51.88194 | -0.37626 | 516 ft | 16 kts | 61° |
| 2026-05-06 15:09 | 51.88208 | -0.37452 | 513 ft | 15 kts | 77° |
| 2026-05-06 15:09 | 51.88231 | -0.37291 | 513 ft | 14 kts | 97° |
| 2026-05-06 15:10 | 51.88153 | -0.37204 | 510 ft | 21 kts | 163° |
| 2026-05-06 15:10 | 51.87975 | -0.37110 | 505 ft | 31 kts | 161° |
| 2026-05-06 15:10 | 51.87811 | -0.37020 | 511 ft | 21 kts | 162° |
| 2026-05-06 15:10 | 51.87696 | -0.36960 | 519 ft | 14 kts | 162° |
| 2026-05-06 15:11 | 51.87627 | -0.36988 | 519 ft | 12 kts | 246° |
| 2026-05-06 15:11 | 51.87605 | -0.37111 | 519 ft | 12 kts | 253° |
| 2026-05-06 15:11 | 51.87581 | -0.37238 | 519 ft | 12 kts | 256° |
| 2026-05-06 15:11 | 51.87579 | -0.37407 | 519 ft | 17 kts | 254° |
| 2026-05-06 15:12 | 51.87503 | -0.37545 | 519 ft | 18 kts | 251° |
| 2026-05-06 15:12 | 51.87467 | -0.37748 | 520 ft | 20 kts | 253° |
| 2026-05-06 15:12 | 51.87430 | -0.37962 | 520 ft | 19 kts | 254° |
| 2026-05-06 15:12 | 51.87370 | -0.38066 | 520 ft | 3 kts | 207° |
| 2026-05-06 15:13 | 51.87360 | -0.38073 | 519 ft | 0 kts | 204° |
| 2026-05-06 15:14 | 51.87310 | -0.38109 | 519 ft | 16 kts | 204° |
| 2026-05-06 15:14 | 51.87261 | -0.38099 | 520 ft | 5 kts | 144° |
| 2026-05-06 15:14 | 51.87253 | -0.38052 | 520 ft | 5 kts | 76° |
| 2026-05-06 15:14 | 51.87260 | -0.38018 | 520 ft | 1 kts | 75° |
| 2026-05-06 15:15 | 51.87262 | -0.38004 | 520 ft | 1 kts | 74° |
| 2026-05-06 15:15 | 51.87264 | -0.37993 | 520 ft | 1 kts | 75° |
| 2026-05-06 15:15 | 51.87310 | -0.37726 | 519 ft | 75 kts | 73° |
| 2026-05-06 15:15 | 51.87543 | -0.36394 | 650 ft | 144 kts | 70° |
| 2026-05-06 15:16 | 51.87718 | -0.34790 | 1301 ft | 152 kts | 77° |
| 2026-05-06 15:16 | 51.87905 | -0.33045 | 2093 ft | 161 kts | 74° |
| 2026-05-06 15:16 | 51.88158 | -0.31193 | 2611 ft | 183 kts | 72° |
| 2026-05-06 15:16 | 51.88526 | -0.29078 | 3088 ft | 211 kts | 70° |
| 2026-05-06 15:17 | 51.89048 | -0.26815 | 3556 ft | 240 kts | 64° |
| 2026-05-06 15:17 | 51.89600 | -0.24149 | 4316 ft | 260 kts | 79° |
| 2026-05-06 15:17 | 51.89357 | -0.21291 | 4945 ft | 264 kts | 109° |
| 2026-05-06 15:17 | 51.88285 | -0.18818 | 4957 ft | 273 kts | 138° |
| 2026-05-06 15:18 | 51.86581 | -0.17469 | 5009 ft | 286 kts | 165° |
| 2026-05-06 15:18 | 51.84622 | -0.17159 | 5204 ft | 281 kts | 175° |
| 2026-05-06 15:18 | 51.82759 | -0.16272 | 5036 ft | 282 kts | 148° |
| 2026-05-06 15:18 | 51.81526 | -0.14011 | 4992 ft | 268 kts | 115° |
| 2026-05-06 15:19 | 51.80962 | -0.11100 | 5181 ft | 275 kts | 102° |
| 2026-05-06 15:19 | 51.80558 | -0.08135 | 5492 ft | 268 kts | 101° |
| 2026-05-06 15:19 | 51.80170 | -0.05236 | 5582 ft | 271 kts | 101° |
| 2026-05-06 15:19 | 51.79766 | -0.02250 | 6771 ft | 263 kts | 101° |
| 2026-05-06 15:20 | 51.79378 | 0.00654 | 7911 ft | 272 kts | 101° |
| 2026-05-06 15:20 | 51.78965 | 0.03705 | 8970 ft | 282 kts | 101° |
| 2026-05-06 15:20 | 51.78541 | 0.06849 | 10000 ft | 292 kts | 101° |
| 2026-05-06 15:20 | 51.78093 | 0.10144 | 10576 ft | 313 kts | 101° |
| 2026-05-06 15:21 | 51.77614 | 0.13719 | 10875 ft | 340 kts | 101° |
| 2026-05-06 15:21 | 51.77112 | 0.17518 | 11202 ft | 362 kts | 101° |
| 2026-05-06 15:21 | 51.76578 | 0.21592 | 12147 ft | 364 kts | 101° |
| 2026-05-06 15:21 | 51.76077 | 0.25472 | 12926 ft | 369 kts | 101° |
| 2026-05-06 15:22 | 51.75556 | 0.29564 | 13757 ft | 374 kts | 101° |
| 2026-05-06 15:22 | 51.74730 | 0.33478 | 14297 ft | 382 kts | 118° |
| 2026-05-06 15:22 | 51.73140 | 0.36968 | 15100 ft | 381 kts | 131° |
| 2026-05-06 15:22 | 51.71381 | 0.40105 | 15871 ft | 384 kts | 134° |
| 2026-05-06 15:23 | 51.69542 | 0.43264 | 16635 ft | 388 kts | 134° |
| 2026-05-06 15:23 | 51.67705 | 0.46491 | 17452 ft | 393 kts | 133° |
| 2026-05-06 15:23 | 51.65872 | 0.49784 | 18266 ft | 397 kts | 133° |
| 2026-05-06 15:23 | 51.64006 | 0.53097 | 19013 ft | 401 kts | 134° |
| 2026-05-06 15:24 | 51.62111 | 0.56410 | 19774 ft | 405 kts | 134° |
| 2026-05-06 15:24 | 51.60193 | 0.59772 | 20546 ft | 409 kts | 134° |
| 2026-05-06 15:24 | 51.58269 | 0.63168 | 21310 ft | 413 kts | 134° |
| 2026-05-06 15:24 | 51.56324 | 0.66592 | 22065 ft | 417 kts | 134° |
| 2026-05-06 15:25 | 51.54354 | 0.70041 | 22794 ft | 422 kts | 134° |
| 2026-05-06 15:25 | 51.52358 | 0.73530 | 23520 ft | 426 kts | 134° |
| 2026-05-06 15:25 | 51.50345 | 0.77052 | 24140 ft | 430 kts | 134° |
| 2026-05-06 15:25 | 51.48347 | 0.80544 | 24761 ft | 433 kts | 134° |
| 2026-05-06 15:26 | 51.46302 | 0.84111 | 25399 ft | 436 kts | 134° |
| 2026-05-06 15:26 | 51.44242 | 0.87696 | 26026 ft | 439 kts | 134° |
| 2026-05-06 15:26 | 51.42162 | 0.91311 | 26659 ft | 443 kts | 134° |
| 2026-05-06 15:26 | 51.40065 | 0.94951 | 27310 ft | 446 kts | 134° |
| 2026-05-06 15:27 | 51.37955 | 0.98619 | 27937 ft | 449 kts | 134° |
| 2026-05-06 15:27 | 51.35827 | 1.02301 | 28561 ft | 453 kts | 134° |
| 2026-05-06 15:27 | 51.33673 | 1.06007 | 29204 ft | 456 kts | 134° |
| 2026-05-06 15:27 | 51.31507 | 1.09746 | 29828 ft | 460 kts | 134° |
| 2026-05-06 15:28 | 51.29327 | 1.13512 | 30369 ft | 464 kts | 134° |
| 2026-05-06 15:28 | 51.27122 | 1.17308 | 30868 ft | 467 kts | 134° |
| 2026-05-06 15:28 | 51.24913 | 1.21098 | 30956 ft | 480 kts | 134° |
| 2026-05-06 15:29 | 51.20366 | 1.29049 | 30932 ft | 487 kts | 130° |
| 2026-05-06 15:29 | 51.17082 | 1.38399 | 31991 ft | 473 kts | 112° |
| 2026-05-06 15:29 | 51.16131 | 1.43367 | 32788 ft | 469 kts | 103° |
| 2026-05-06 15:30 | 51.15662 | 1.48509 | 33483 ft | 469 kts | 95° |
| 2026-05-06 15:30 | 51.15423 | 1.53679 | 34171 ft | 467 kts | 94° |
| 2026-05-06 15:30 | 51.15170 | 1.58832 | 34735 ft | 467 kts | 95° |
| 2026-05-06 15:30 | 51.14903 | 1.64031 | 34954 ft | 477 kts | 95° |
| 2026-05-06 15:31 | 51.14639 | 1.69373 | 34945 ft | 491 kts | 95° |
| 2026-05-06 15:31 | 51.14377 | 1.74797 | 34951 ft | 504 kts | 95° |
| 2026-05-06 15:31 | 51.14094 | 1.80415 | 34963 ft | 514 kts | 95° |
| 2026-05-06 15:32 | 51.13311 | 1.91851 | 34947 ft | 525 kts | 102° |
| 2026-05-06 15:32 | 51.12324 | 1.97421 | 34945 ft | 526 kts | 110° |
| 2026-05-06 15:32 | 51.08880 | 2.07649 | 34947 ft | 525 kts | 127° |
| 2026-05-06 15:33 | 51.03820 | 2.15803 | 34951 ft | 521 kts | 143° |
| 2026-05-06 15:33 | 50.97935 | 2.22518 | 34968 ft | 521 kts | 146° |
| 2026-05-06 15:34 | 50.92300 | 2.29770 | 34943 ft | 523 kts | 138° |
| 2026-05-06 15:34 | 50.87164 | 2.37925 | 34946 ft | 522 kts | 136° |
| 2026-05-06 15:35 | 50.81706 | 2.45493 | 34931 ft | 521 kts | 141° |
| 2026-05-06 15:35 | 50.76413 | 2.53226 | 34923 ft | 522 kts | 137° |
| 2026-05-06 15:36 | 50.71038 | 2.60898 | 34921 ft | 521 kts | 140° |
| 2026-05-06 15:36 | 50.69235 | 2.63402 | 34919 ft | 521 kts | 139° |
| 2026-05-06 15:37 | 50.64045 | 2.70910 | 34907 ft | 521 kts | 138° |
| 2026-05-06 15:37 | 50.58685 | 2.78481 | 34907 ft | 520 kts | 139° |
| 2026-05-06 15:38 | 50.53320 | 2.86103 | 34906 ft | 520 kts | 139° |
| 2026-05-06 15:38 | 50.47936 | 2.93709 | 34903 ft | 519 kts | 139° |
| 2026-05-06 15:39 | 50.42554 | 3.01281 | 34904 ft | 520 kts | 139° |
| 2026-05-06 15:39 | 50.37173 | 3.08845 | 34900 ft | 519 kts | 139° |
| 2026-05-06 15:40 | 50.31821 | 3.16323 | 34898 ft | 519 kts | 139° |
| 2026-05-06 15:40 | 50.26444 | 3.23833 | 34901 ft | 518 kts | 139° |
| 2026-05-06 15:41 | 50.21065 | 3.31311 | 34897 ft | 517 kts | 139° |
| 2026-05-06 15:41 | 50.15696 | 3.38751 | 34898 ft | 517 kts | 139° |
| 2026-05-06 15:42 | 50.10310 | 3.46195 | 34895 ft | 517 kts | 139° |
| 2026-05-06 15:42 | 50.04963 | 3.53561 | 34896 ft | 516 kts | 140° |
| 2026-05-06 15:43 | 49.99583 | 3.60949 | 34899 ft | 516 kts | 140° |
| 2026-05-06 15:43 | 49.94192 | 3.68330 | 34896 ft | 516 kts | 140° |
| 2026-05-06 15:44 | 49.88802 | 3.75686 | 34897 ft | 516 kts | 140° |
| 2026-05-06 15:44 | 49.83405 | 3.83030 | 34895 ft | 516 kts | 140° |
| 2026-05-06 15:45 | 49.78040 | 3.90307 | 34884 ft | 516 kts | 140° |
| 2026-05-06 15:45 | 49.72628 | 3.97623 | 34885 ft | 516 kts | 140° |
| 2026-05-06 15:46 | 49.67219 | 4.04917 | 34886 ft | 517 kts | 140° |
| 2026-05-06 15:46 | 49.61794 | 4.12207 | 34880 ft | 517 kts | 140° |
| 2026-05-06 15:47 | 49.56397 | 4.19438 | 34877 ft | 518 kts | 140° |
| 2026-05-06 15:47 | 49.50954 | 4.26708 | 34878 ft | 518 kts | 140° |
| 2026-05-06 15:48 | 49.45499 | 4.33974 | 34880 ft | 518 kts | 140° |
| 2026-05-06 15:48 | 49.40048 | 4.41210 | 34881 ft | 518 kts | 140° |
| 2026-05-06 15:49 | 49.34595 | 4.48427 | 34872 ft | 516 kts | 140° |
| 2026-05-06 15:49 | 49.29189 | 4.55560 | 34871 ft | 517 kts | 140° |
| 2026-05-06 15:50 | 49.23738 | 4.62733 | 34866 ft | 517 kts | 140° |
| 2026-05-06 15:50 | 49.18286 | 4.69883 | 34861 ft | 516 kts | 141° |
| 2026-05-06 15:51 | 49.12867 | 4.76970 | 34860 ft | 516 kts | 141° |
| 2026-05-06 15:51 | 49.07420 | 4.84072 | 34859 ft | 515 kts | 141° |
| 2026-05-06 15:52 | 49.01974 | 4.91150 | 34860 ft | 514 kts | 141° |
| 2026-05-06 15:52 | 48.96536 | 4.98197 | 34858 ft | 513 kts | 141° |
| 2026-05-06 15:53 | 48.91085 | 5.05241 | 34866 ft | 513 kts | 141° |
| 2026-05-06 15:53 | 48.85676 | 5.12210 | 34871 ft | 513 kts | 141° |
| 2026-05-06 15:54 | 48.80233 | 5.19202 | 34870 ft | 513 kts | 141° |
| 2026-05-06 15:54 | 48.74781 | 5.26186 | 34865 ft | 513 kts | 141° |
| 2026-05-06 15:55 | 48.69324 | 5.33154 | 34865 ft | 513 kts | 141° |
| 2026-05-06 15:55 | 48.63870 | 5.40098 | 34863 ft | 513 kts | 141° |
| 2026-05-06 15:56 | 48.58445 | 5.46986 | 34861 ft | 513 kts | 141° |
| 2026-05-06 15:56 | 48.53090 | 5.53765 | 34857 ft | 513 kts | 141° |
| 2026-05-06 15:57 | 48.47614 | 5.60677 | 34858 ft | 513 kts | 141° |
| 2026-05-06 15:57 | 48.42136 | 5.67571 | 34854 ft | 513 kts | 141° |
| 2026-05-06 15:58 | 48.36716 | 5.74374 | 34854 ft | 514 kts | 142° |
| 2026-05-06 15:58 | 48.31202 | 5.81273 | 34853 ft | 514 kts | 142° |
| 2026-05-06 15:59 | 48.25700 | 5.88139 | 34853 ft | 514 kts | 142° |
| 2026-05-06 15:59 | 48.22970 | 5.91540 | 34641 ft | 501 kts | 142° |
| 2026-05-06 15:59 | 48.20348 | 5.94804 | 33966 ft | 477 kts | 142° |
| 2026-05-06 16:00 | 48.17856 | 5.97898 | 33307 ft | 454 kts | 142° |
| 2026-05-06 16:00 | 48.15466 | 6.00856 | 32723 ft | 440 kts | 142° |
| 2026-05-06 16:00 | 48.13162 | 6.03701 | 32163 ft | 440 kts | 142° |
| 2026-05-06 16:00 | 48.10772 | 6.06654 | 31591 ft | 446 kts | 141° |
| 2026-05-06 16:01 | 48.08376 | 6.09624 | 31001 ft | 448 kts | 141° |
| 2026-05-06 16:01 | 48.05976 | 6.12591 | 30411 ft | 449 kts | 141° |
| 2026-05-06 16:01 | 48.03568 | 6.15554 | 29798 ft | 445 kts | 140° |
| 2026-05-06 16:01 | 48.01201 | 6.18471 | 29186 ft | 439 kts | 140° |
| 2026-05-06 16:02 | 47.98845 | 6.21368 | 28606 ft | 437 kts | 140° |
| 2026-05-06 16:02 | 47.96510 | 6.24232 | 28018 ft | 434 kts | 140° |
| 2026-05-06 16:02 | 47.94216 | 6.27043 | 27468 ft | 430 kts | 140° |
| 2026-05-06 16:02 | 47.91912 | 6.29865 | 26900 ft | 427 kts | 140° |
| 2026-05-06 16:03 | 47.89621 | 6.32669 | 26340 ft | 424 kts | 140° |
| 2026-05-06 16:03 | 47.87349 | 6.35445 | 25776 ft | 421 kts | 140° |
| 2026-05-06 16:03 | 47.85089 | 6.38203 | 25228 ft | 419 kts | 140° |
| 2026-05-06 16:03 | 47.82843 | 6.40941 | 24673 ft | 416 kts | 140° |
| 2026-05-06 16:04 | 47.80611 | 6.43659 | 24126 ft | 413 kts | 140° |
| 2026-05-06 16:04 | 47.78441 | 6.46299 | 23594 ft | 410 kts | 140° |
| 2026-05-06 16:04 | 47.76196 | 6.49027 | 23001 ft | 407 kts | 140° |
| 2026-05-06 16:04 | 47.74012 | 6.51679 | 22479 ft | 404 kts | 140° |
| 2026-05-06 16:05 | 47.71838 | 6.54317 | 21942 ft | 402 kts | 141° |
| 2026-05-06 16:05 | 47.69679 | 6.56932 | 21409 ft | 400 kts | 141° |
| 2026-05-06 16:05 | 47.67558 | 6.59491 | 20917 ft | 397 kts | 142° |
| 2026-05-06 16:05 | 47.65423 | 6.62067 | 20406 ft | 394 kts | 142° |
| 2026-05-06 16:06 | 47.63305 | 6.64626 | 19890 ft | 392 kts | 142° |
| 2026-05-06 16:06 | 47.61199 | 6.67175 | 19364 ft | 390 kts | 142° |
| 2026-05-06 16:06 | 47.59100 | 6.69704 | 18865 ft | 388 kts | 143° |
| 2026-05-06 16:06 | 47.57003 | 6.72216 | 18350 ft | 386 kts | 143° |
| 2026-05-06 16:07 | 47.55090 | 6.74987 | 17796 ft | 385 kts | 133° |
| 2026-05-06 16:07 | 47.53366 | 6.78015 | 17308 ft | 384 kts | 131° |
| 2026-05-06 16:07 | 47.51660 | 6.81033 | 16811 ft | 382 kts | 132° |
| 2026-05-06 16:07 | 47.49951 | 6.83949 | 16318 ft | 379 kts | 133° |
| 2026-05-06 16:08 | 47.48248 | 6.86822 | 15829 ft | 377 kts | 133° |
| 2026-05-06 16:08 | 47.46411 | 6.89550 | 15296 ft | 373 kts | 142° |
| 2026-05-06 16:08 | 47.44303 | 6.91728 | 14808 ft | 368 kts | 150° |
| 2026-05-06 16:08 | 47.42129 | 6.93702 | 14348 ft | 366 kts | 150° |
| 2026-05-06 16:09 | 47.40048 | 6.95783 | 13906 ft | 366 kts | 146° |
| 2026-05-06 16:09 | 47.38049 | 6.98097 | 13433 ft | 364 kts | 144° |
| 2026-05-06 16:09 | 47.36142 | 7.00281 | 12973 ft | 362 kts | 146° |
| 2026-05-06 16:09 | 47.34106 | 7.02432 | 12505 ft | 359 kts | 147° |
| 2026-05-06 16:10 | 47.32096 | 7.04535 | 12048 ft | 358 kts | 147° |
| 2026-05-06 16:10 | 47.30130 | 7.06676 | 11257 ft | 346 kts | 146° |
| 2026-05-06 16:10 | 47.28265 | 7.08733 | 10814 ft | 322 kts | 146° |
| 2026-05-06 16:10 | 47.26531 | 7.10607 | 10586 ft | 296 kts | 147° |
| 2026-05-06 16:11 | 47.24915 | 7.12330 | 9937 ft | 290 kts | 148° |
| 2026-05-06 16:11 | 47.23280 | 7.14077 | 9128 ft | 290 kts | 147° |
| 2026-05-06 16:11 | 47.21652 | 7.15835 | 8663 ft | 291 kts | 147° |
| 2026-05-06 16:11 | 47.20019 | 7.17596 | 8319 ft | 291 kts | 147° |
| 2026-05-06 16:12 | 47.18989 | 7.18703 | 8076 ft | 290 kts | 148° |
| 2026-05-06 16:12 | 47.16831 | 7.21013 | 7572 ft | 286 kts | 148° |
| 2026-05-06 16:12 | 47.15233 | 7.22731 | 7190 ft | 283 kts | 147° |
| 2026-05-06 16:12 | 47.13656 | 7.24443 | 6817 ft | 280 kts | 147° |
| 2026-05-06 16:13 | 47.12134 | 7.26114 | 6451 ft | 267 kts | 147° |
| 2026-05-06 16:13 | 47.10682 | 7.27721 | 6089 ft | 256 kts | 147° |
| 2026-05-06 16:13 | 47.09723 | 7.28653 | 5818 ft | 245 kts | 157° |
| 2026-05-06 16:13 | 47.08206 | 7.29592 | 5536 ft | 231 kts | 161° |
| 2026-05-06 16:14 | 47.06832 | 7.30796 | 5240 ft | 231 kts | 148° |
| 2026-05-06 16:14 | 47.05610 | 7.32300 | 4956 ft | 229 kts | 144° |
| 2026-05-06 16:14 | 47.04406 | 7.33797 | 4677 ft | 226 kts | 145° |
| 2026-05-06 16:14 | 47.03216 | 7.35261 | 4363 ft | 221 kts | 144° |
| 2026-05-06 16:15 | 47.02078 | 7.36662 | 4055 ft | 206 kts | 145° |
| 2026-05-06 16:15 | 47.01016 | 7.37970 | 3798 ft | 194 kts | 145° |
| 2026-05-06 16:15 | 47.00039 | 7.39177 | 3861 ft | 174 kts | 145° |
| 2026-05-06 16:15 | 46.99166 | 7.40254 | 3863 ft | 162 kts | 146° |
| 2026-05-06 16:16 | 46.98343 | 7.41255 | 3863 ft | 148 kts | 147° |
| 2026-05-06 16:16 | 46.97569 | 7.42204 | 3685 ft | 145 kts | 146° |
| 2026-05-06 16:16 | 46.96815 | 7.43128 | 3400 ft | 134 kts | 145° |
| 2026-05-06 16:16 | 46.96130 | 7.43955 | 3194 ft | 124 kts | 146° |
| 2026-05-06 16:17 | 46.95477 | 7.44745 | 3020 ft | 124 kts | 147° |
| 2026-05-06 16:17 | 46.94788 | 7.45592 | 2752 ft | 134 kts | 145° |
| 2026-05-06 16:17 | 46.94023 | 7.46465 | 2411 ft | 144 kts | 143° |
| 2026-05-06 16:17 | 46.93263 | 7.47426 | 2172 ft | 144 kts | 141° |
| 2026-05-06 16:18 | 46.92522 | 7.48356 | 1923 ft | 143 kts | 139° |
| 2026-05-06 16:18 | 46.91769 | 7.49281 | 1716 ft | 138 kts | 140° |
| 2026-05-06 16:18 | 46.91132 | 7.50061 | 1680 ft | 101 kts | 140° |
| 2026-05-06 16:18 | 46.90825 | 7.50432 | 1678 ft | 21 kts | 140° |
| 2026-05-06 16:19 | 46.90790 | 7.50485 | 1677 ft | 2 kts | 186° |
| 2026-05-06 16:19 | 46.90805 | 7.50448 | 1677 ft | 11 kts | 320° |
| 2026-05-06 16:19 | 46.90888 | 7.50353 | 1677 ft | 19 kts | 325° |
| 2026-05-06 16:19 | 46.90935 | 7.50342 | 1678 ft | 5 kts | 356° |
| 2026-05-06 16:20 | 46.90980 | 7.50337 | 1686 ft | 7 kts | 1° |
| 2026-05-06 16:20 | 46.91033 | 7.50329 | 1684 ft | 9 kts | 321° |
| 2026-05-06 16:20 | 46.91089 | 7.50262 | 1680 ft | 12 kts | 320° |
| 2026-05-06 16:20 | 46.91148 | 7.50195 | 1684 ft | 5 kts | 11° |
| 2026-05-06 16:21 | 46.91166 | 7.50238 | 1680 ft | 3 kts | 65° |
| 2026-05-06 16:21 | 46.91168 | 7.50242 | 1683 ft | 0 kts | 65° |